x

Matinicus Rock, Me (mism1) Weather Station

12:00am - Sun 28th May 2017 All times are EDT. -4 hours from GMT.

  • Wind
    6mph, 6mph gusts
  • Air Temp 45°f
  • Sea Pressure 1014.4mb
  • Matinicus Rock, Me
  • Matinicus Rock, Me

More Historic Weather Station data

Upgrade to MSW Pro to gain access to the past 30 days of data for over 8000 Wavebouys and Weather Stations around the globe.

Join Pro

Comparision Forecast

View Surf forecast
   
Sun 05/28 12:00am 6 6 mph 1014.4mb 45f
Sat 05/27 11:00pm 7 7 mph 1014.2mb 45f
10:00pm 9 9 mph 1014mb 45f
9:00pm 7 7 mph 1013.4mb 45f
8:00pm 6 6 mph 1012.7mb 46f
7:00pm 8 9 mph 1012.7mb 46f
6:00pm 15 15 mph 1011.8mb 49f
5:00pm 10 10 mph 1011.6mb 48f
4:00pm 7 7 mph 1011.5mb 50f
3:00pm 7 7 mph 1011.1mb 47f
2:00pm 5 5 mph 1011.1mb 47f
1:00pm 5 5 mph 1011.3mb 46f
12:00pm 8 8 mph 1010.7mb 46f
11:00am 9 10 mph 1009.9mb 46f
10:00am 11 11 mph 1009.6mb 47f
9:00am 10 10 mph 1009.3mb 47f
8:00am 13 13 mph 1008.9mb 47f
7:00am 10 10 mph 1008.2mb 47f
6:00am 13 14 mph 1007.4mb 46f
5:00am 15 16 mph 1006.7mb 47f
4:00am 15 16 mph 1006.2mb 47f
3:00am 16 18 mph 1005.7mb 48f
2:00am 15 16 mph 1005.5mb 47f
1:00am 17 17 mph 1005.2mb 48f
12:00am 16 17 mph 1004.7mb 48f
Fri 05/26 11:00pm 18 20 mph 1004.1mb 49f
10:00pm 17 18 mph 1003.7mb 48f
9:00pm 17 18 mph 1003mb 48f
8:00pm 20 21 mph 1002.2mb 49f
7:00pm 13 13 mph 1001.2mb 49f
6:00pm 10 11 mph 1000.4mb 47f
5:00pm 13 13 mph 999.7mb 47f
4:00pm 14 16 mph 999mb 47f
3:00pm 22 25 mph 998.6mb 46f
2:00pm 28 30 mph 998mb 45f
1:00pm 23 25 mph 998mb 45f
12:00pm 26 29 mph 998.2mb 45f
11:00am 29 31 mph 998.4mb 45f
10:00am 29 33 mph 998.4mb 45f
9:00am 29 32 mph 998.5mb 45f
8:00am 31 32 mph 999.3mb 45f
7:00am 28 31 mph 999.7mb 45f
6:00am 30 33 mph 1000.8mb 45f
5:00am 37 41 mph 1000.5mb 45f
4:00am 40 46 mph 1000.1mb 45f
3:00am 41 45 mph 1001.6mb 45f
2:00am 37 39 mph 1003.5mb 45f
1:00am 36 40 mph 1004.6mb 46f
12:00am 34 38 mph 1006mb 46f
Thu 05/25 11:00pm 34 37 mph 1007mb 47f
10:00pm 30 32 mph 1008.4mb 47f
9:00pm 31 33 mph 1008.8mb 48f
8:00pm 34 38 mph 1008.1mb 48f
7:00pm 32 34 mph 1009.6mb 48f
6:00pm 28 32 mph 1010.7mb 47f
5:00pm 30 32 mph 1011mb 47f